Time;durP1;ratioP1;P1;durP2;ratioP2;P2;SDS_P1;SDS_P2;PMS_P1;PMS_P2;Temp;Humidity;BMP_temperature;BMP_pressure;BME280_temperature;BME280_humidity;BME280_pressure;Samples;Min_cycle;Max_cycle;Signal;HPM_P1;HPM_P2
2023/01/02 00:01:12;;;;;;;18.73;9.87;;;;;;;4.88;100.00;98198.31;1728203;82;21069;-68
2023/01/02 00:03:41;;;;;;;21.20;10.20;;;;;;;4.87;100.00;98198.00;1728092;83;21037;-69
2023/01/02 00:06:09;;;;;;;18.53;9.73;;;;;;;4.87;100.00;98194.47;1728161;83;21009;-67
2023/01/02 00:08:38;;;;;;;20.87;10.33;;;;;;;4.84;100.00;98195.67;1728019;83;20993;-69
2023/01/02 00:11:07;;;;;;;17.57;9.63;;;;;;;4.83;100.00;98192.66;1727968;83;21538;-68
2023/01/02 00:13:33;;;;;;;20.17;9.97;;;;;;;4.82;100.00;98187.50;1728366;83;21013;-68
2023/01/02 00:16:01;;;;;;;19.43;9.23;;;;;;;4.80;100.00;98193.52;1727959;83;21037;-68
2023/01/02 00:18:27;;;;;;;17.53;8.87;;;;;;;4.79;100.00;98198.56;1727938;83;21072;-69
2023/01/02 00:20:54;;;;;;;18.33;9.70;;;;;;;4.76;100.00;98199.74;1728173;83;21010;-67
2023/01/02 00:23:21;;;;;;;17.37;8.83;;;;;;;4.69;100.00;98194.30;1728535;83;21001;-68
2023/01/02 00:25:48;;;;;;;19.63;8.93;;;;;;;4.67;100.00;98204.32;1727898;83;21554;-69
2023/01/02 00:28:16;;;;;;;17.90;9.23;;;;;;;4.64;100.00;98208.72;1728387;83;21044;-69
2023/01/02 00:30:45;;;;;;;17.13;8.47;;;;;;;4.55;100.00;98205.27;1727910;83;21518;-68
2023/01/02 00:33:12;;;;;;;17.73;9.00;;;;;;;4.48;100.00;98213.67;1728096;83;21519;-68
2023/01/02 00:35:39;;;;;;;18.87;8.83;;;;;;;4.46;100.00;98222.88;1728330;83;21021;-68
2023/01/02 00:38:07;;;;;;;19.23;9.13;;;;;;;4.43;100.00;98217.37;1728423;83;21028;-67
2023/01/02 00:40:34;;;;;;;20.50;10.60;;;;;;;4.38;100.00;98221.09;1728086;83;20997;-68
2023/01/02 00:43:01;;;;;;;21.10;10.20;;;;;;;4.38;100.00;98219.75;1728249;83;20993;-69
2023/01/02 00:45:27;;;;;;;19.77;9.60;;;;;;;4.40;100.00;98224.41;1728151;83;21104;-69
2023/01/02 00:47:56;;;;;;;19.30;9.77;;;;;;;4.44;100.00;98212.85;1728328;82;21021;-68
2023/01/02 00:50:23;;;;;;;18.10;9.17;;;;;;;4.48;100.00;98212.33;1727933;83;21073;-69
2023/01/02 00:52:51;;;;;;;19.30;9.60;;;;;;;4.51;100.00;98198.57;1728064;83;21024;-70
2023/01/02 00:55:18;;;;;;;20.57;10.03;;;;;;;4.55;100.00;98197.71;1728302;83;21014;-70
2023/01/02 00:57:45;;;;;;;18.20;9.20;;;;;;;4.61;100.00;98182.81;1728415;83;20985;-68
2023/01/02 01:00:15;;;;;;;19.63;9.97;;;;;;;4.65;100.00;98171.55;1728380;83;21033;-68
2023/01/02 01:02:42;;;;;;;18.00;9.07;;;;;;;4.68;100.00;98169.03;1728362;82;21025;-69
2023/01/02 01:05:09;;;;;;;18.27;9.40;;;;;;;4.68;100.00;98160.48;1728246;83;21045;-69
2023/01/02 01:07:38;;;;;;;18.87;9.50;;;;;;;4.68;100.00;98159.14;1728190;83;21045;-68
2023/01/02 01:10:06;;;;;;;21.10;9.83;;;;;;;4.65;100.00;98160.84;1728104;83;21017;-68
2023/01/02 01:12:35;;;;;;;20.70;9.50;;;;;;;4.64;100.00;98157.85;1728111;83;21041;-68
2023/01/02 01:15:02;;;;;;;17.67;9.40;;;;;;;4.63;100.00;98156.69;1728424;83;21017;-68
2023/01/02 01:17:31;;;;;;;18.33;9.73;;;;;;;4.62;100.00;98157.20;1728168;83;21518;-70
2023/01/02 01:19:58;;;;;;;20.00;10.27;;;;;;;4.60;100.00;98156.52;1702014;83;21005;-69
2023/01/02 01:22:24;;;;;;;20.07;10.17;;;;;;;4.59;100.00;98161.56;1728417;83;21036;-68
2023/01/02 01:24:53;;;;;;;16.33;9.23;;;;;;;4.56;100.00;98163.25;1728072;83;21487;-70
2023/01/02 01:27:20;;;;;;;18.17;9.17;;;;;;;4.52;100.00;98166.80;1728217;83;21522;-69
2023/01/02 01:29:47;;;;;;;20.73;9.90;;;;;;;4.49;100.00;98167.66;1728304;83;21044;-67
2023/01/02 01:32:16;;;;;;;20.60;10.33;;;;;;;4.43;100.00;98169.20;1728083;83;21037;-69
2023/01/02 01:34:43;;;;;;;18.90;9.93;;;;;;;4.38;100.00;98171.58;1728120;83;20997;-68
2023/01/02 01:37:11;;;;;;;19.27;9.33;;;;;;;4.32;100.00;98178.48;1728306;83;21017;-69
2023/01/02 01:39:38;;;;;;;18.90;9.67;;;;;;;4.28;100.00;98175.80;1728229;83;21487;-67
2023/01/02 01:42:05;;;;;;;16.93;8.33;;;;;;;4.24;100.00;98185.20;1728346;82;21056;-68
2023/01/02 01:44:50;;;;;;;18.10;9.33;;;;;;;4.19;100.00;98189.73;1728116;82;21530;-69
2023/01/02 01:47:44;;;;;;;19.87;9.77;;;;;;;4.17;100.00;98189.59;1728234;83;21065;-68
2023/01/02 01:50:19;;;;;;;18.10;9.13;;;;;;;4.14;100.00;98192.61;1728535;83;21005;-67
2023/01/02 01:52:51;;;;;;;19.77;9.47;;;;;;;4.12;100.00;98186.61;1728164;83;21088;-69
2023/01/02 01:55:24;;;;;;;19.00;9.60;;;;;;;4.10;100.00;98199.33;1728319;83;21044;-69
2023/01/02 01:58:01;;;;;;;19.17;9.83;;;;;;;4.07;100.00;98197.84;1728272;83;21018;-69
2023/01/02 02:00:29;;;;;;;18.70;9.33;;;;;;;4.05;100.00;98203.84;1728200;83;21033;-70
2023/01/02 02:03:02;;;;;;;19.60;9.27;;;;;;;4.04;100.00;98200.01;1728298;83;21044;-70
2023/01/02 02:05:29;;;;;;;16.20;8.50;;;;;;;4.01;100.00;98205.22;1728217;83;21467;-70
2023/01/02 02:08:23;;;;;;;19.87;9.97;;;;;;;3.99;100.00;98208.06;1728001;83;21033;-69
2023/01/02 02:10:50;;;;;;;20.10;8.93;;;;;;;3.98;100.00;98215.77;1728442;83;21025;-68
2023/01/02 02:13:18;;;;;;;17.77;8.77;;;;;;;3.96;100.00;98220.43;1728220;83;21087;-69
2023/01/02 02:16:18;;;;;;;17.30;8.37;;;;;;;3.92;100.00;98220.97;1727998;83;21530;-68
2023/01/02 02:19:21;;;;;;;16.70;8.43;;;;;;;3.87;100.00;98236.19;1728048;83;21037;-70
2023/01/02 02:22:19;;;;;;;18.17;8.50;;;;;;;3.83;100.00;98244.23;1728108;83;21006;-69
2023/01/02 02:25:15;;;;;;;18.53;8.83;;;;;;;3.80;100.00;98256.08;1729099;83;21021;-69
2023/01/02 02:28:12;;;;;;;19.07;8.73;;;;;;;3.76;100.00;98263.30;1728317;83;21045;-69
2023/01/02 02:31:15;;;;;;;18.30;9.17;;;;;;;3.70;100.00;98287.55;1728373;83;21033;-67
2023/01/02 02:33:55;;;;;;;19.23;9.67;;;;;;;3.64;100.00;98275.35;1728305;82;21013;-69
2023/01/02 02:36:42;;;;;;;19.20;9.97;;;;;;;3.66;100.00;98281.36;1728049;83;21073;-69
2023/01/02 02:39:29;;;;;;;19.30;9.73;;;;;;;3.74;100.00;98289.38;1728296;83;21045;-69
2023/01/02 02:42:13;;;;;;;18.10;9.27;;;;;;;3.76;100.00;98278.83;1728213;83;21060;-70
2023/01/02 02:45:03;;;;;;;18.17;9.53;;;;;;;3.82;100.00;98261.77;1728370;82;20993;-68
2023/01/02 02:47:42;;;;;;;19.43;9.70;;;;;;;3.85;100.00;98266.78;1727984;82;21041;-68
2023/01/02 02:50:31;;;;;;;18.40;9.30;;;;;;;3.87;100.00;98244.72;1727160;83;21005;-69
2023/01/02 02:53:09;;;;;;;19.43;9.77;;;;;;;3.85;100.00;98247.56;1728337;83;20985;-66
2023/01/02 02:55:44;;;;;;;17.67;9.40;;;;;;;3.83;100.00;98242.06;1728324;83;21056;-68
2023/01/02 02:58:12;;;;;;;19.00;9.90;;;;;;;3.82;100.00;98240.38;1727980;83;21057;-68
2023/01/02 03:00:40;;;;;;;20.23;9.90;;;;;;;3.87;100.00;98232.69;1728235;83;21502;-69
2023/01/02 03:03:22;;;;;;;20.53;9.83;;;;;;;3.90;100.00;98225.16;1719128;81;21139;-68
2023/01/02 03:06:17;;;;;;;20.77;10.10;;;;;;;3.96;100.00;98220.94;1718222;83;21037;-68
2023/01/02 03:09:19;;;;;;;20.53;9.43;;;;;;;4.02;100.00;98207.38;1718161;82;21034;-69
2023/01/02 03:12:10;;;;;;;20.80;9.67;;;;;;;4.04;100.00;98200.86;1717875;83;21084;-69
2023/01/02 03:14:58;;;;;;;19.40;8.97;;;;;;;4.04;100.00;98200.86;1717781;83;21053;-68
2023/01/02 03:17:43;;;;;;;21.37;9.90;;;;;;;4.05;100.00;98193.66;1718107;83;21030;-68
2023/01/02 03:20:12;;;;;;;18.07;9.50;;;;;;;4.04;100.00;98187.48;1717717;83;21021;-70
2023/01/02 03:22:43;;;;;;;21.27;10.87;;;;;;;4.03;100.00;98187.66;1718579;83;21049;-69
2023/01/02 03:25:10;;;;;;;20.27;10.17;;;;;;;4.00;100.00;98192.84;1717670;83;21057;-68
2023/01/02 03:27:40;;;;;;;18.03;9.80;;;;;;;3.98;100.00;98190.84;1717806;83;21013;-70
2023/01/02 03:30:14;;;;;;;19.30;10.27;;;;;;;3.94;100.00;98192.21;1718062;82;21037;-69
2023/01/02 03:32:57;;;;;;;22.50;10.97;;;;;;;3.91;100.00;98194.74;1718068;83;21018;-68
2023/01/02 03:35:34;;;;;;;19.13;10.10;;;;;;;3.87;100.00;98185.38;1716140;83;21487;-69
2023/01/02 03:38:02;;;;;;;18.67;9.63;;;;;;;3.84;100.00;98184.89;1718056;83;21009;-69
2023/01/02 03:40:34;;;;;;;18.90;9.80;;;;;;;3.82;100.00;98186.91;1697895;83;21010;-68
2023/01/02 03:43:07;;;;;;;20.97;9.90;;;;;;;3.80;100.00;98181.73;1717494;83;21077;-69
2023/01/02 03:45:36;;;;;;;22.55;11.18;;;;;;;3.80;100.00;98181.73;1718044;83;21045;-69
2023/01/02 03:48:21;;;;;;;20.40;10.97;;;;;;;3.78;100.00;98177.07;1717923;83;21062;-68
2023/01/02 03:50:51;;;;;;;19.10;10.63;;;;;;;3.77;100.00;98185.60;1718114;82;21500;-69
2023/01/02 03:53:20;;;;;;;22.87;11.17;;;;;;;3.76;100.00;98184.44;1717971;83;21006;-69
2023/01/02 03:56:25;;;;;;;22.87;10.60;;;;;;;3.75;100.00;98180.94;1717982;83;21045;-68
2023/01/02 03:59:09;;;;;;;22.50;10.50;;;;;;;3.77;100.00;98174.91;1718091;83;21077;-69
2023/01/02 04:01:50;;;;;;;21.33;10.72;;;;;;;3.78;100.00;98164.53;1719088;81;21033;-68
2023/01/02 04:04:41;;;;;;;23.20;10.70;;;;;;;3.77;100.00;98165.55;1728200;83;21017;-67
2023/01/02 04:07:12;;;;;;;21.13;10.80;;;;;;;3.76;100.00;98161.71;1728161;83;21041;-68
2023/01/02 04:09:39;;;;;;;18.83;9.93;;;;;;;3.76;100.00;98166.55;1685665;85;21057;-69
2023/01/02 04:12:13;;;;;;;19.73;10.20;;;;;;;3.77;100.00;98173.57;1673404;86;21017;-69
2023/01/02 04:14:49;;;;;;;20.50;10.97;;;;;;;3.77;100.00;98173.57;1661579;86;21044;-69
2023/01/02 04:17:18;;;;;;;20.73;10.63;;;;;;;3.75;100.00;98172.92;1660705;86;21049;-68
2023/01/02 04:19:53;;;;;;;24.40;13.03;;;;;;;3.74;100.00;98179.26;1661609;86;21026;-68
2023/01/02 04:22:25;;;;;;;24.07;12.13;;;;;;;3.72;100.00;98182.61;1661041;86;21057;-69
2023/01/02 04:25:02;;;;;;;22.15;10.90;;;;;;;3.71;100.00;98186.79;1671231;86;21020;-68
2023/01/02 04:27:34;;;;;;;20.87;10.70;;;;;;;3.70;100.00;98185.11;1670356;86;21037;-68
2023/01/02 04:30:01;;;;;;;20.83;10.73;;;;;;;3.68;100.00;98179.93;1671133;86;21016;-69
2023/01/02 04:32:41;;;;;;;21.83;11.10;;;;;;;3.68;100.00;98175.09;1671033;86;21499;-69
2023/01/02 04:35:11;;;;;;;21.40;10.87;;;;;;;3.69;100.00;98172.77;1670709;86;21049;-69
2023/01/02 04:37:41;;;;;;;21.27;10.60;;;;;;;3.70;100.00;98169.07;1670804;86;21523;-70
2023/01/02 04:40:25;;;;;;;19.30;10.50;;;;;;;3.72;100.00;98171.06;1671112;86;21494;-68
2023/01/02 04:42:52;;;;;;;20.23;9.93;;;;;;;3.74;100.00;98171.75;1671104;86;21100;-69
2023/01/02 04:45:19;;;;;;;20.40;10.73;;;;;;;3.72;100.00;98168.39;1671186;85;21061;-69
2023/01/02 04:47:49;;;;;;;21.17;10.67;;;;;;;3.70;100.00;98171.27;1670958;86;21530;-69
2023/01/02 04:50:16;;;;;;;20.37;10.23;;;;;;;3.69;100.00;98167.42;1671231;86;21072;-68
2023/01/02 04:52:44;;;;;;;21.00;10.63;;;;;;;3.67;100.00;98162.76;1670939;86;21566;-70
2023/01/02 04:55:10;;;;;;;20.53;10.37;;;;;;;3.64;100.00;98175.12;1671080;86;21048;-69
2023/01/02 04:57:39;;;;;;;18.93;9.80;;;;;;;3.63;100.00;98168.09;1670822;85;21575;-69
2023/01/02 05:00:08;;;;;;;20.27;10.50;;;;;;;3.59;100.00;98168.47;1670826;86;21052;-69
2023/01/02 05:02:36;;;;;;;21.40;10.27;;;;;;;3.59;100.00;98168.94;1669364;85;21040;-70
2023/01/02 05:05:05;;;;;;;20.67;9.93;;;;;;;3.58;100.00;98181.99;1657291;87;21534;-68
2023/01/02 05:07:33;;;;;;;25.67;11.10;;;;;;;3.55;100.00;98179.66;1666585;86;21085;-69
2023/01/02 05:10:00;;;;;;;18.50;9.90;;;;;;;3.52;100.00;98200.03;1666957;86;21041;-70
2023/01/02 05:12:27;;;;;;;19.73;9.97;;;;;;;3.50;100.00;98206.88;1666844;86;21073;-69
2023/01/02 05:14:58;;;;;;;17.80;9.00;;;;;;;3.54;100.00;98213.58;1667105;86;21088;-69
2023/01/02 05:17:25;;;;;;;20.20;9.63;;;;;;;3.55;100.00;98229.92;1667696;86;21045;-68
2023/01/02 05:19:52;;;;;;;18.00;9.40;;;;;;;3.55;100.00;98240.61;1666574;86;21057;-68
2023/01/02 05:25:05;;;;;;;21.37;10.03;;;;;;;3.51;100.00;98263.34;1666516;86;21056;-69
2023/01/02 05:27:33;;;;;;;19.17;9.27;;;;;;;3.50;100.00;98257.66;1666707;86;21080;-68
2023/01/02 05:30:00;;;;;;;20.33;10.20;;;;;;;3.50;100.00;98271.53;1667090;86;21005;-68
2023/01/02 05:32:29;;;;;;;18.40;8.93;;;;;;;3.50;100.00;98279.03;1666864;86;21095;-67
2023/01/02 05:34:56;;;;;;;19.23;9.30;;;;;;;3.51;100.00;98279.89;1666803;86;21076;-68
2023/01/02 05:37:24;;;;;;;20.03;10.40;;;;;;;3.52;100.00;98282.37;1666533;86;21484;-68
2023/01/02 05:39:51;;;;;;;16.57;8.67;;;;;;;3.52;100.00;98289.05;1666702;86;21053;-69
2023/01/02 05:42:18;;;;;;;17.07;8.77;;;;;;;3.52;100.00;98291.72;1666683;86;21089;-68
2023/01/02 05:44:46;;;;;;;19.10;9.47;;;;;;;3.51;100.00;98303.43;1666642;86;21572;-68
2023/01/02 05:47:13;;;;;;;19.83;9.93;;;;;;;3.50;100.00;98304.42;1666497;86;21618;-70
2023/01/02 05:49:40;;;;;;;19.57;9.80;;;;;;;3.48;100.00;98300.27;1666693;86;21029;-69
2023/01/02 05:52:08;;;;;;;19.53;9.43;;;;;;;3.48;100.00;98313.11;1666631;86;21057;-69
2023/01/02 05:54:36;;;;;;;21.37;9.50;;;;;;;3.48;100.00;98315.78;1667101;86;21076;-67
2023/01/02 05:57:03;;;;;;;19.77;9.70;;;;;;;3.50;100.00;98315.63;1666838;85;21081;-68
2023/01/02 05:59:32;;;;;;;20.53;10.07;;;;;;;3.54;100.00;98316.95;1666671;85;21548;-69
2023/01/02 06:01:59;;;;;;;22.90;10.27;;;;;;;3.55;100.00;98318.63;1667025;86;21498;-68
2023/01/02 06:04:26;;;;;;;20.10;9.93;;;;;;;3.58;100.00;98318.30;1657461;86;21045;-68
2023/01/02 06:06:52;;;;;;;23.17;11.10;;;;;;;3.59;100.00;98318.13;1666727;86;21032;-69
2023/01/02 06:09:25;;;;;;;20.67;10.40;;;;;;;3.61;100.00;98314.78;1666585;86;21065;-69
2023/01/02 06:11:57;;;;;;;22.03;10.10;;;;;;;3.64;100.00;98319.45;1657358;87;21554;-68
2023/01/02 06:14:24;;;;;;;19.83;9.83;;;;;;;3.67;100.00;98323.96;1666540;86;21025;-69
2023/01/02 06:16:52;;;;;;;21.10;10.27;;;;;;;3.71;100.00;98323.13;1666924;85;21037;-70
2023/01/02 06:19:20;;;;;;;21.20;9.70;;;;;;;3.73;100.00;98323.27;1666634;86;21065;-70
2023/01/02 06:21:47;;;;;;;21.77;10.17;;;;;;;3.77;100.00;98323.28;1666693;86;21511;-68
2023/01/02 06:24:15;;;;;;;21.70;10.17;;;;;;;3.80;100.00;98321.58;1666729;86;21515;-69
2023/01/02 06:26:42;;;;;;;21.17;11.27;;;;;;;3.84;100.00;98316.73;1666605;86;21516;-68
2023/01/02 06:29:10;;;;;;;21.77;11.47;;;;;;;3.89;100.00;98311.71;1666337;86;21061;-69
2023/01/02 06:31:37;;;;;;;20.80;10.63;;;;;;;3.96;100.00;98306.02;1666744;86;21027;-69
2023/01/02 06:34:04;;;;;;;21.50;10.43;;;;;;;4.00;100.00;98305.16;1666717;86;21084;-68
2023/01/02 06:36:33;;;;;;;21.67;11.17;;;;;;;4.06;100.00;98298.31;1666671;86;21045;-68
2023/01/02 06:39:00;;;;;;;20.43;9.53;;;;;;;4.14;100.00;98300.95;1666679;86;21032;-69
2023/01/02 06:41:27;;;;;;;21.50;10.57;;;;;;;4.21;100.00;98285.87;1666765;86;21053;-69
2023/01/02 06:43:54;;;;;;;22.13;10.80;;;;;;;4.29;100.00;98285.02;1666576;86;21009;-69
2023/01/02 06:46:22;;;;;;;23.77;10.53;;;;;;;4.37;100.00;98283.63;1666357;86;21088;-69
2023/01/02 06:48:49;;;;;;;21.67;11.00;;;;;;;4.43;100.00;98277.59;1666614;86;21065;-69
2023/01/02 06:51:20;;;;;;;21.77;11.17;;;;;;;4.47;100.00;98262.02;1666593;86;21096;-70
2023/01/02 06:53:47;;;;;;;19.07;10.87;;;;;;;4.52;100.00;98271.19;1666295;86;21025;-68
2023/01/02 06:56:16;;;;;;;18.67;10.03;;;;;;;4.58;100.00;98262.95;1666537;86;21037;-67
2023/01/02 06:58:43;;;;;;;21.33;9.73;;;;;;;4.67;100.00;98263.22;1666492;86;21053;-68
2023/01/02 07:01:14;;;;;;;21.67;10.67;;;;;;;4.69;100.00;98260.38;1666392;85;21057;-67
2023/01/02 07:03:41;;;;;;;21.53;11.00;;;;;;;4.73;100.00;98263.05;1685954;85;21015;-67
2023/01/02 07:06:12;;;;;;;22.20;10.73;;;;;;;4.78;100.00;98251.30;1684979;85;21105;-66
2023/01/02 07:08:41;;;;;;;21.40;10.13;;;;;;;4.83;100.00;98250.23;1685180;85;21038;-67
2023/01/02 07:11:15;;;;;;;20.17;10.03;;;;;;;4.91;100.00;98243.48;1684984;85;21520;-67
2023/01/02 07:13:51;;;;;;;28.13;13.53;;;;;;;5.00;100.00;98228.70;1685365;85;21030;-67
2023/01/02 07:16:22;;;;;;;27.73;12.93;;;;;;;5.10;100.00;98218.06;1667783;85;20997;-66
2023/01/02 07:18:52;;;;;;;22.80;11.30;;;;;;;5.21;100.00;98211.44;1633476;88;21064;-67
2023/01/02 07:21:19;;;;;;;25.77;12.50;;;;;;;5.32;100.00;98202.95;1633259;88;21016;-67
2023/01/02 07:23:46;;;;;;;49.93;31.20;;;;;;;5.44;100.00;98202.00;1633548;86;21064;-66
2023/01/02 07:26:13;;;;;;;31.40;19.30;;;;;;;5.57;100.00;98193.83;1633525;88;21092;-66
2023/01/02 07:28:43;;;;;;;27.43;15.80;;;;;;;5.65;100.00;98178.48;1633069;88;21091;-66
2023/01/02 07:31:21;;;;;;;23.03;12.13;;;;;;;5.73;100.00;98169.51;1628811;87;21506;-67
2023/01/02 07:33:57;;;;;;;21.93;11.53;;;;;;;5.82;100.00;98159.00;1632888;87;21471;-68
2023/01/02 07:36:26;;;;;;;21.03;10.97;;;;;;;5.90;100.00;98146.02;1632768;87;21165;-67
2023/01/02 07:38:54;;;;;;;21.23;11.30;;;;;;;6.00;100.00;98137.20;1633235;86;21028;-69
2023/01/02 07:41:23;;;;;;;21.47;11.00;;;;;;;6.09;100.00;98133.86;1633052;88;21041;-68
2023/01/02 07:43:53;;;;;;;19.67;10.37;;;;;;;6.20;100.00;98125.86;1633518;87;21045;-67
2023/01/02 07:46:19;;;;;;;22.57;11.00;;;;;;;6.30;100.00;98110.25;1634560;86;21080;-66
2023/01/02 07:48:49;;;;;;;21.67;10.57;;;;;;;6.41;100.00;98099.52;1695126;83;21553;-68
2023/01/02 07:51:16;;;;;;;20.87;10.43;;;;;;;6.51;100.00;98094.66;1655242;86;21026;-68
2023/01/02 07:53:43;;;;;;;21.40;10.87;;;;;;;6.61;100.00;98093.83;1667578;86;21035;-67
2023/01/02 07:56:10;;;;;;;20.00;10.13;;;;;;;6.69;100.00;98088.00;1647274;87;21576;-67
2023/01/02 07:58:38;;;;;;;19.90;10.03;;;;;;;6.77;100.00;98077.95;1643305;87;21060;-69
2023/01/02 08:01:11;;;;;;;23.10;10.43;;;;;;;6.89;100.00;98076.05;1643208;87;21096;-67
2023/01/02 08:03:38;;;;;;;19.92;10.50;;;;;;;7.01;100.00;98062.40;1653888;86;21060;-69
2023/01/02 08:06:08;;;;;;;19.47;9.77;;;;;;;7.12;100.00;98066.39;1667235;85;21032;-67
2023/01/02 08:08:35;;;;;;;22.47;11.70;;;;;;;7.27;100.00;98059.58;1668167;86;21067;-68
2023/01/02 08:11:09;;;;;;;21.30;10.67;;;;;;;7.40;100.00;98067.69;1666781;85;21099;-67
2023/01/02 08:13:36;;;;;;;20.10;10.40;;;;;;;7.49;100.00;98061.14;1666719;86;21545;-69
2023/01/02 08:16:07;;;;;;;20.77;10.87;;;;;;;7.62;100.00;98057.67;1666222;86;20994;-67
2023/01/02 08:18:34;;;;;;;21.77;10.40;;;;;;;7.75;100.00;98059.06;1722489;83;21077;-67
2023/01/02 08:33:01;;;;;;;20.63;9.80;;;;;;;8.47;100.00;98076.16;1607949;89;21053;-68
2023/01/02 08:35:31;;;;;;;19.30;9.47;;;;;;;8.64;100.00;98108.89;1619896;88;21113;-67
2023/01/02 08:37:59;;;;;;;23.53;10.33;;;;;;;8.70;100.00;98152.02;1607745;89;21552;-69
2023/01/02 08:40:26;;;;;;;20.93;9.70;;;;;;;8.73;100.00;98198.77;1613303;89;21068;-69
2023/01/02 08:42:54;;;;;;;19.40;9.57;;;;;;;8.78;100.00;98222.39;1617698;88;21117;-67
2023/01/02 08:45:21;;;;;;;19.20;9.63;;;;;;;8.86;100.00;98253.73;1608523;89;21551;-66
2023/01/02 08:47:50;;;;;;;17.90;9.20;;;;;;;9.02;100.00;98268.70;1608444;89;21586;-68
2023/01/02 08:50:17;;;;;;;18.83;9.30;;;;;;;9.24;100.00;98290.92;1608844;89;21065;-68
2023/01/02 08:52:44;;;;;;;18.20;9.33;;;;;;;9.32;100.00;98321.75;1608750;87;21273;-67
2023/01/02 08:55:12;;;;;;;20.40;9.60;;;;;;;9.35;100.00;98365.00;1606168;87;21089;-67
2023/01/02 08:57:39;;;;;;;18.90;9.57;;;;;;;9.31;100.00;98398.30;1607317;89;21089;-67
2023/01/02 09:00:09;;;;;;;20.53;9.87;;;;;;;9.28;100.00;98443.23;1608113;89;21072;-66
2023/01/02 09:02:38;;;;;;;20.17;10.30;;;;;;;9.33;100.00;98473.13;1691975;84;21065;-68
2023/01/02 09:16:23;;;;;;;19.97;9.57;;;;;;;9.62;100.00;98608.78;1707157;83;21014;-67
2023/01/02 09:18:50;;;;;;;17.60;9.27;;;;;;;9.84;100.00;98635.14;1702100;83;21010;-66
2023/01/02 09:21:18;;;;;;;21.35;10.20;;;;;;;9.97;100.00;98684.31;1673969;85;21074;-69
2023/01/02 09:28:20;;;;;;;21.42;10.35;;;;;;;10.25;100.00;98731.50;1637779;87;21035;-68
2023/01/02 10:02:58;;;;;;;16.02;8.50;;;;;;;11.17;100.00;98999.84;1584754;88;21245;-69
2023/01/02 10:05:46;;;;;;;18.02;8.40;;;;;;;11.30;100.00;99030.21;1620776;87;21569;-67
2023/01/02 10:08:23;;;;;;;15.58;8.45;;;;;;;11.40;100.00;99049.10;1620224;89;21063;-68
2023/01/02 10:11:27;;;;;;;16.42;7.50;;;;;;;11.42;100.00;99069.70;1620491;89;21524;-68
2023/01/02 10:14:04;;;;;;;23.30;10.18;;;;;;;11.47;100.00;99091.06;1620437;89;21059;-68
2023/01/02 10:16:35;;;;;;;25.80;13.40;;;;;;;11.55;100.00;99101.74;1637550;87;21559;-67
2023/01/02 10:19:05;;;;;;;31.57;17.45;;;;;;;11.63;100.00;99116.15;1638365;88;21061;-68
2023/01/02 10:21:35;;;;;;;63.55;35.70;;;;;;;11.65;100.00;99128.47;1647952;85;21053;-68
2023/01/02 10:24:38;;;;;;;24.70;14.35;;;;;;;11.64;100.00;99153.86;1648058;87;21045;-68
2023/01/02 10:27:21;;;;;;;21.05;9.65;;;;;;;11.64;100.00;99170.11;1646785;86;21081;-69
2023/01/02 10:30:18;;;;;;;17.10;8.13;;;;;;;11.69;100.00;99178.47;1647107;87;21085;-67
2023/01/02 10:33:09;;;;;;;17.23;8.45;;;;;;;11.75;100.00;99194.44;1678791;85;21010;-67
2023/01/02 10:35:44;;;;;;;19.12;7.83;;;;;;;11.86;100.00;99193.86;1628056;87;21014;-67
2023/01/02 10:38:18;;;;;;;18.17;8.50;;;;;;;11.96;100.00;99200.31;1708911;83;21490;-70
2023/01/02 10:40:49;;;;;;;16.20;7.05;;;;;;;12.04;100.00;99208.78;1711140;83;21025;-68
2023/01/02 10:43:17;;;;;;;16.12;6.85;;;;;;;12.11;100.00;99211.00;1693324;83;21079;-68
2023/01/02 10:45:45;;;;;;;12.07;6.10;;;;;;;12.14;100.00;99222.80;1713894;83;21041;-67
2023/01/02 10:48:12;;;;;;;14.45;6.45;;;;;;;12.21;100.00;99237.75;1704451;83;21058;-67
2023/01/02 10:54:24;;;;;;;13.88;6.17;;;;;;;12.20;100.00;99268.59;1706583;83;21008;-67
2023/01/02 10:56:53;;;;;;;14.43;6.72;;;;;;;12.14;100.00;99304.94;1719845;83;21073;-67
2023/01/02 10:59:28;;;;;;;10.95;5.60;;;;;;;12.17;100.00;99330.81;1719341;83;21017;-69
2023/01/02 11:02:03;;;;;;;12.47;5.90;;;;;;;12.25;100.00;99337.45;1719565;83;21512;-69
2023/01/02 11:04:35;;;;;;;12.37;6.03;;;;;;;12.27;100.00;99343.50;1719425;83;21050;-68
2023/01/02 11:07:05;;;;;;;;;;;;;;;12.32;100.00;99363.22;1721669;83;21006;-69
2023/01/02 11:09:37;;;;;;;12.28;5.90;;;;;;;12.41;100.00;99358.47;1690787;83;20109;-71
2023/01/02 11:12:12;;;;;;;13.30;6.05;;;;;;;12.51;100.00;99366.56;1719709;83;21038;-69
2023/01/02 11:14:39;;;;;;;14.78;6.55;;;;;;;12.59;100.00;99369.65;1719301;83;21010;-69
2023/01/02 11:17:22;;;;;;;12.98;6.78;;;;;;;12.65;100.00;99384.27;1709505;84;21106;-69
2023/01/02 11:19:53;;;;;;;14.83;7.03;;;;;;;12.64;100.00;99407.86;1718722;83;21042;-69
2023/01/02 11:22:37;;;;;;;10.58;6.00;;;;;;;12.62;100.00;99432.13;1708418;84;21031;-70
2023/01/02 11:25:21;;;;;;;13.05;6.65;;;;;;;12.60;100.00;99453.20;1709215;84;21081;-69
2023/01/02 11:31:47;;;;;;;13.70;6.55;;;;;;;12.62;100.00;99465.50;1719395;83;21062;-70
2023/01/02 11:34:25;;;;;;;15.43;7.73;;;;;;;12.43;100.00;99479.27;1719445;83;21500;-69
2023/01/02 11:37:15;;;;;;;18.32;7.72;;;;;;;12.31;100.00;99511.48;1718817;83;21649;-69
2023/01/02 11:39:42;;;;;;;16.70;8.08;;;;;;;12.25;100.00;99528.55;1709646;84;21082;-71
2023/01/02 11:45:16;;;;;;;18.30;8.78;;;;;;;12.29;100.00;99537.13;1719559;83;21053;-70
2023/01/02 11:47:52;;;;;;;17.07;8.60;;;;;;;12.39;100.00;99534.89;1719406;83;21065;-69
2023/01/02 11:50:30;;;;;;;18.98;9.30;;;;;;;12.47;100.00;99544.26;1719255;83;21015;-69
2023/01/02 11:53:15;;;;;;;19.10;9.75;;;;;;;12.55;100.00;99555.47;1719256;83;21050;-68
2023/01/02 11:56:02;;;;;;;20.15;10.00;;;;;;;12.66;100.00;99559.03;1718783;83;21026;-69
2023/01/02 11:58:38;;;;;;;21.65;10.40;;;;;;;12.80;100.00;99562.69;1719431;83;21073;-70
2023/01/02 12:01:20;;;;;;;26.05;12.15;;;;;;;12.95;100.00;99560.39;1719669;83;21014;-69
2023/01/02 12:03:46;;;;;;;22.80;12.35;;;;;;;12.99;100.00;99570.62;1719590;83;21054;-70
2023/01/02 12:06:23;;;;;;;20.70;11.33;;;;;;;12.93;100.00;99596.38;1721609;83;21135;-69
2023/01/02 12:09:04;;;;;;;25.52;12.20;;;;;;;12.90;100.00;99614.71;1721828;83;21030;-69
2023/01/02 12:11:43;;;;;;;26.77;12.03;;;;;;;12.79;100.00;99651.88;1721890;83;21062;-68
2023/01/02 12:14:39;;;;;;;24.77;12.63;;;;;;;12.77;100.00;99668.05;1711640;83;21035;-69
2023/01/02 12:17:36;;;;;;;29.50;13.30;;;;;;;12.84;100.00;99670.30;1711595;84;21070;-68
2023/01/02 12:20:31;;;;;;;27.93;12.90;;;;;;;12.96;100.00;99670.09;1693626;83;21076;-69
2023/01/02 12:23:29;;;;;;;25.92;12.33;;;;;;;12.99;100.00;99690.56;1721612;83;21042;-71
2023/01/02 12:26:20;;;;;;;27.75;11.60;;;;;;;12.97;100.00;99708.92;1721958;83;21116;-70
2023/01/02 12:29:20;;;;;;;27.30;12.23;;;;;;;12.91;100.00;99729.02;1721491;83;21011;-68
2023/01/02 12:32:20;;;;;;;27.75;12.50;;;;;;;12.82;100.00;99756.45;1720777;83;21574;-67
2023/01/02 12:35:05;;;;;;;36.20;14.80;;;;;;;12.82;100.00;99765.45;1721944;83;21058;-69
2023/01/02 12:37:56;;;;;;;42.03;16.17;;;;;;;12.82;100.00;99768.66;1721803;83;21520;-71
2023/01/02 12:40:56;;;;;;;44.63;17.20;;;;;;;12.89;100.00;99779.07;1721717;83;21539;-70
2023/01/02 12:43:53;;;;;;;39.60;17.00;;;;;;;12.86;100.00;99785.73;1705241;83;21033;-69
2023/01/02 12:46:42;;;;;;;64.30;25.27;;;;;;;12.65;100.00;99817.73;1706843;84;21043;-71
2023/01/02 12:49:34;;;;;;;49.23;22.20;;;;;;;12.60;100.00;99822.88;1711951;84;21058;-70
2023/01/02 12:52:19;;;;;;;40.50;19.25;;;;;;;12.56;100.00;99827.54;1720867;83;21575;-69
2023/01/02 12:55:15;;;;;;;33.85;14.07;;;;;;;12.53;100.00;99839.59;1721298;83;21103;-69
2023/01/02 12:58:00;;;;;;;33.55;12.50;;;;;;;12.51;100.00;99845.20;1721176;83;21559;-70
2023/01/02 13:01:01;;;;;;;26.93;12.00;;;;;;;12.50;100.00;99846.73;1683843;83;21053;-69
2023/01/02 13:03:55;;;;;;;27.77;11.00;;;;;;;12.59;100.00;99839.34;1720720;83;21073;-70